Huvudsida
METAR-TAF:

METAR-TAF

Flygplatser :

New Orleans, Louisiana, USA

latitud: 29-59-34N, longitud: 090-15-03W, höjd: 1 m

Aktuellt väderrapport

Denna rapport gjordes för 1 timme och 6 minuter sedan, klockan 23:53 UTC
Vind 7 kt från väst/sydväst
Temperatur 33°C
Fuktighet 63%
Tryck 1013 hPa
Sikt: 16.1 km
Spridda moln på en höjd av 25000 ft

METAR: KMSY 212353Z 25007KT 10SM SCT250 33/25 A2992 RMK AO2 SLP133 T03330250 10350 20328 58006

Tid: 19:59 (00:59 UTC)

Väderprognos

Denna rapport gjordes för 1 timme och 39 minuter sedan, klockan 23:20 UTC
Prognos gäller från 22 kl. 00 UTC till 23 kl. 06 UTC
Vind 8 kt från sydväst
Sikt: 10 km
Få moln på en höjd av 25000 ft
Från 22 kl. 1500 UTC
Vind 11 kt från väst
Sikt: 10 km
Få moln på en höjd av 2000 ft
Få moln på en höjd av 25000 ft
Från 23 kl. 0200 UTC
Vind 7 kt från väst/sydväst
Sikt: 10 km
Spridda moln på en höjd av 20000 ft

TAF: KMSY 212320Z 2200/2306 23008KT P6SM FEW250 FM221500 27011KT P6SM FEW020 FEW250 FM230200 24007KT P6SM SCT200

Aktuella väderrapporter och prognoser från 4000 flygplatser (METAR- och TAF-rapporter).

De tillgängliga stationerna syns som gula och röda prickar på kartan.

För musen över prickarna för att se namnen på stationerna.

Klicka sedan för att få väderrapporter och prognoser.

För att ändra kartan: Klicka på de gröna knapparna med ett svart kors på för att zooma in; den gröna knappen med ett streck på för att zooma ut; eller på de gröna pilarna för angränsande kartor.


METAR-TAF: